Impacts METAR Board
IDs:

KCVB - Castroville Muni, TX, US

Updated at: 0100 UTC 01 Nov 2020
Potential Impact None Slight Moderate High
Time 31/13Z 31/14Z 31/15Z 31/16Z 31/17Z 31/18Z 31/19Z 31/20Z 31/21Z 31/22Z 31/23Z 01/00Z 01/01Z
Temp41 47 57 65 69 73 76 78 79 80 79 74 67
Dewpt34 36 40 42 40 39 38 37 36 37 37 37 36
Altim30.23 30.25 30.26 30.26 30.25 30.22 30.17 30.14 30.13 30.12 30.11 30.12 30.14
VIS10 10 10 7 10 10 10 10 7 10 10 10 7
CIG-- -- -- -- -- -- -- -- -- -- -- -- --
CoverCLRCLRCLRCLRCLRCLRCLRCLRCLRCLRCLRCLRCLR
FltCatVFRVFRVFRVFRVFRVFRVFRVFRVFRVFRVFRVFRVFR
WX--------------------------
WDir320310016018016016001501801801800
WSpd6 3 0 5 5 6 4 0 3 5 7 3 0
WGst-- -- -- -- -- -- -- -- -- -- -- -- --
Raw hourly METARs
KCVB 311255Z AUTO 32006KT 10SM CLR 05/01 A3023 RMK AO2 T00510010
KCVB 311355Z AUTO 31003KT 10SM CLR 08/02 A3025 RMK AO2 T00840024
KCVB 311455Z AUTO 00000KT 10SM CLR 14/05 A3026 RMK AO2 T01400046
KCVB 311555Z AUTO 16005KT 7SM CLR 18/05 A3026 RMK AO2 T01810054
KCVB 311655Z AUTO 18005KT 10SM CLR 21/05 A3025 RMK AO2 T02080047
KCVB 311755Z AUTO 16006KT 10SM CLR 23/04 A3022 RMK AO2 T02280039 10228 20051
KCVB 311855Z AUTO 16004KT 10SM CLR 24/03 A3017 RMK AO2 T02420032
KCVB 311955Z AUTO 00000KT 10SM CLR 25/03 A3014 RMK AO2 T02540025
KCVB 312055Z AUTO 15003KT 7SM CLR 26/02 A3013 RMK AO2 T02600021
KCVB 312155Z AUTO 18005KT 10SM CLR 27/03 A3012 RMK AO2 T02660025
KCVB 312255Z AUTO 18007KT 10SM CLR 26/03 A3011 RMK AO2 T02620027
KCVB 312355Z AUTO 18003KT 10SM CLR 24/03 A3012 RMK AO2 T02360025 10266 20229
KCVB 010055Z AUTO 00000KT 7SM CLR 19/02 A3014 RMK AO2 T01930021